Time;durP1;ratioP1;P1;durP2;ratioP2;P2;SDS_P1;SDS_P2;PMS_P1;PMS_P2;Temp;Humidity;BMP_temperature;BMP_pressure;BME280_temperature;BME280_humidity;BME280_pressure;Samples;Min_cycle;Max_cycle;Signal;HPM_P1;HPM_P2
2022/02/01 00:00:43;;;;;;;14.87;6.30;;;;;;;;;;2093031;28;20204;-63
2022/02/01 00:01:53;;;;;;;21.10;6.47;;;;;;;;;;2089111;28;20243;-63
2022/02/01 00:02:58;;;;;;;15.97;5.80;;;;;;;;;;2094122;28;20575;-63
2022/02/01 00:04:02;;;;;;;18.10;5.60;;;;;;;;;;2088616;28;20179;-57
2022/02/01 00:05:11;;;;;;;21.23;6.73;;;;;;;;;;2088579;28;20282;-57
2022/02/01 00:06:22;;;;;;;21.50;6.03;;;;;;;;;;2088997;28;20193;-60
2022/02/01 00:07:36;;;;;;;23.80;6.17;;;;;;;;;;2083819;28;20171;-59
2022/02/01 00:08:45;;;;;;;26.70;5.73;;;;;;;;;;2087998;28;20167;-60
2022/02/01 00:10:07;;;;;;;21.20;6.67;;;;;;;;;;2081075;28;20253;-57
2022/02/01 00:11:26;;;;;;;20.43;6.63;;;;;;;;;;2086760;28;20300;-61
2022/02/01 00:15:06;;;;;;;27.00;5.87;;;;;;;;;;2083582;28;20184;-60
2022/02/01 00:17:45;;;;;;;17.53;5.97;;;;;;;;;;2092411;28;20254;-59
2022/02/01 00:33:42;;;;;;;23.90;5.93;;;;;;;;;;2087568;28;20191;-61
2022/02/01 00:35:58;;;;;;;20.60;6.50;;;;;;;;;;2081642;28;20192;-61
2022/02/01 00:37:02;;;;;;;22.00;6.50;;;;;;;;;;2083751;28;20153;-61
2022/02/01 00:38:16;;;;;;;23.50;6.27;;;;;;;;;;2090089;28;20195;-61
2022/02/01 00:39:17;;;;;;;27.23;7.37;;;;;;;;;;2090021;28;20689;-62
2022/02/01 00:40:18;;;;;;;22.80;5.97;;;;;;;;;;2093648;28;20257;-59
2022/02/01 00:41:19;;;;;;;25.83;7.40;;;;;;;;;;2084997;28;20176;-56
2022/02/01 00:42:19;;;;;;;22.63;6.53;;;;;;;;;;2084548;28;20171;-60
2022/02/01 00:43:20;;;;;;;20.20;6.03;;;;;;;;;;2092662;28;20171;-61
2022/02/01 00:44:20;;;;;;;23.07;6.27;;;;;;;;;;2094460;28;20171;-59
2022/02/01 00:45:21;;;;;;;23.30;7.20;;;;;;;;;;2094174;28;20171;-63
2022/02/01 00:46:21;;;;;;;23.83;6.03;;;;;;;;;;2090175;28;20179;-62
2022/02/01 00:47:21;;;;;;;21.63;7.13;;;;;;;;;;2084934;28;20172;-54
2022/02/01 00:48:21;;;;;;;28.63;6.17;;;;;;;;;;2091631;22;20486;-60
2022/02/01 00:49:22;;;;;;;21.20;5.87;;;;;;;;;;2074409;28;20180;-60
2022/02/01 00:50:22;;;;;;;20.37;5.70;;;;;;;;;;2068673;28;20169;-59
2022/02/01 00:51:22;;;;;;;20.27;5.90;;;;;;;;;;2067876;28;20210;-59
2022/02/01 00:52:25;;;;;;;23.33;5.73;;;;;;;;;;2067112;28;20278;-59
2022/02/01 00:53:28;;;;;;;20.10;6.37;;;;;;;;;;2076878;28;20169;-56
2022/02/01 00:54:28;;;;;;;19.43;6.67;;;;;;;;;;2072043;28;20195;-56
2022/02/01 00:55:28;;;;;;;14.97;5.60;;;;;;;;;;2067314;28;20173;-55
2022/02/01 00:56:29;;;;;;;19.40;6.67;;;;;;;;;;2074830;28;20180;-59
2022/02/01 00:57:29;;;;;;;18.97;6.23;;;;;;;;;;2074973;28;20270;-56
2022/02/01 00:58:30;;;;;;;18.60;6.40;;;;;;;;;;2069631;28;20248;-58
2022/02/01 00:59:30;;;;;;;20.20;6.43;;;;;;;;;;2070408;28;20180;-56
2022/02/01 01:00:30;;;;;;;17.10;5.47;;;;;;;;;;2072997;28;20643;-57
2022/02/01 01:01:30;;;;;;;16.93;6.00;;;;;;;;;;2071832;28;20646;-61
2022/02/01 01:02:31;;;;;;;28.10;6.53;;;;;;;;;;2071746;28;20205;-58
2022/02/01 01:03:31;;;;;;;16.80;5.23;;;;;;;;;;2071429;28;20255;-60
2022/02/01 01:04:31;;;;;;;26.43;6.30;;;;;;;;;;2072427;28;20192;-58
2022/02/01 01:05:32;;;;;;;26.83;6.13;;;;;;;;;;2071669;28;20667;-61
2022/02/01 01:06:32;;;;;;;17.80;6.10;;;;;;;;;;2073629;28;20239;-57
2022/02/01 01:07:32;;;;;;;21.47;5.30;;;;;;;;;;2073213;28;20195;-60
2022/02/01 01:08:33;;;;;;;15.30;5.40;;;;;;;;;;2073448;28;20653;-61
2022/02/01 01:09:33;;;;;;;20.47;6.13;;;;;;;;;;2067162;28;20165;-60
2022/02/01 01:10:34;;;;;;;16.53;6.23;;;;;;;;;;2071843;28;20263;-60
2022/02/01 01:11:34;;;;;;;18.97;5.70;;;;;;;;;;2070982;28;20612;-57
2022/02/01 01:12:42;;;;;;;15.33;5.70;;;;;;;;;;2073511;28;20173;-60
2022/02/01 01:15:07;;;;;;;17.73;5.90;;;;;;;;;;2068100;28;20552;-57
2022/02/01 01:43:41;;;;;;;17.40;5.23;;;;;;;;;;2073206;28;20187;-63
2022/02/01 01:44:49;;;;;;;14.87;4.90;;;;;;;;;;2074684;28;20183;-63
2022/02/01 01:46:06;;;;;;;14.70;5.23;;;;;;;;;;2067745;28;20161;-63
2022/02/01 01:53:40;;;;;;;19.03;5.33;;;;;;;;;;2073713;28;20165;-59
2022/02/01 01:54:41;;;;;;;19.40;5.83;;;;;;;;;;2072666;28;20614;-61
2022/02/01 01:55:49;;;;;;;17.90;5.10;;;;;;;;;;2072563;28;20180;-60
2022/02/01 01:56:53;;;;;;;10.73;4.17;;;;;;;;;;2073691;28;20251;-59
2022/02/01 01:57:53;;;;;;;17.67;4.90;;;;;;;;;;2073337;28;20687;-60
2022/02/01 01:58:54;;;;;;;14.60;5.17;;;;;;;;;;2073766;28;20192;-59
2022/02/01 01:59:54;;;;;;;16.13;4.43;;;;;;;;;;2074028;28;20173;-59
2022/02/01 02:01:57;;;;;;;15.20;5.53;;;;;;;;;;2073758;28;20180;-58
2022/02/01 02:02:58;;;;;;;25.17;5.13;;;;;;;;;;2071982;28;20255;-58
2022/02/01 02:03:59;;;;;;;19.43;5.63;;;;;;;;;;2067266;28;20201;-62
2022/02/01 02:04:59;;;;;;;12.50;4.37;;;;;;;;;;2071874;28;20169;-59
2022/02/01 02:05:59;;;;;;;15.77;5.33;;;;;;;;;;2066234;28;20178;-62
2022/02/01 02:06:59;;;;;;;12.93;3.90;;;;;;;;;;2073857;28;20168;-58
2022/02/01 02:08:00;;;;;;;12.93;4.73;;;;;;;;;;2073387;28;20177;-61
2022/02/01 02:09:02;;;;;;;17.30;4.87;;;;;;;;;;2073617;28;20197;-59
2022/02/01 02:10:03;;;;;;;14.97;4.63;;;;;;;;;;2074124;28;20559;-62
2022/02/01 02:11:08;;;;;;;15.83;5.33;;;;;;;;;;2074213;28;20196;-61
2022/02/01 02:12:16;;;;;;;10.63;4.50;;;;;;;;;;2075235;28;20170;-62
2022/02/01 02:14:24;;;;;;;14.77;4.80;;;;;;;;;;2074028;28;20188;-61
2022/02/01 02:15:27;;;;;;;15.50;5.03;;;;;;;;;;2073006;28;20188;-62
2022/02/01 02:16:28;;;;;;;22.03;5.93;;;;;;;;;;2072920;28;20176;-59
2022/02/01 02:17:28;;;;;;;13.33;4.67;;;;;;;;;;2073637;28;20222;-59
2022/02/01 02:18:32;;;;;;;15.87;4.83;;;;;;;;;;2070444;28;20185;-56
2022/02/01 02:19:33;;;;;;;14.00;4.77;;;;;;;;;;2071151;28;20843;-60
2022/02/01 02:20:49;;;;;;;12.57;5.20;;;;;;;;;;2069273;28;20189;-62
2022/02/01 02:21:50;;;;;;;16.07;4.43;;;;;;;;;;2073381;28;20176;-59
2022/02/01 02:22:51;;;;;;;16.03;4.37;;;;;;;;;;2067297;28;20189;-59
2022/02/01 02:23:51;;;;;;;17.20;5.17;;;;;;;;;;2074114;28;20196;-62
2022/02/01 02:24:51;;;;;;;14.30;4.53;;;;;;;;;;2073108;28;20181;-58
2022/02/01 02:25:52;;;;;;;18.07;4.83;;;;;;;;;;2066222;28;20208;-60
2022/02/01 02:26:53;;;;;;;14.30;5.30;;;;;;;;;;2073413;28;20192;-56
2022/02/01 02:27:54;;;;;;;16.43;5.10;;;;;;;;;;2072673;28;20272;-55
2022/02/01 02:28:54;;;;;;;12.70;5.03;;;;;;;;;;2066272;28;20275;-58
2022/02/01 02:29:54;;;;;;;12.43;4.27;;;;;;;;;;2072951;28;20235;-56
2022/02/01 02:30:55;;;;;;;14.57;5.07;;;;;;;;;;2071700;28;20227;-55
2022/02/01 02:31:56;;;;;;;10.97;4.37;;;;;;;;;;2073646;28;20211;-54
2022/02/01 02:33:04;;;;;;;11.93;4.57;;;;;;;;;;2071905;28;20185;-55
2022/02/01 02:34:10;;;;;;;17.03;5.17;;;;;;;;;;2069569;28;20187;-60
2022/02/01 02:35:11;;;;;;;17.63;4.80;;;;;;;;;;2072977;28;20219;-53
2022/02/01 02:36:15;;;;;;;19.83;4.70;;;;;;;;;;2072208;28;20219;-55
2022/02/01 02:37:18;;;;;;;13.40;4.77;;;;;;;;;;2071977;28;20266;-57
2022/02/01 02:38:27;;;;;;;22.03;5.13;;;;;;;;;;2073213;28;20181;-57
2022/02/01 02:39:34;;;;;;;12.63;4.50;;;;;;;;;;2070338;28;20196;-58
2022/02/01 02:41:01;;;;;;;15.17;4.47;;;;;;;;;;2072126;28;20181;-58
2022/02/01 02:45:09;;;;;;;14.00;4.63;;;;;;;;;;2063715;28;20185;-61
2022/02/01 02:46:09;;;;;;;16.07;4.50;;;;;;;;;;2060006;28;20178;-59
2022/02/01 02:47:09;;;;;;;20.00;5.27;;;;;;;;;;2068186;28;20212;-61
2022/02/01 02:48:12;;;;;;;14.47;4.27;;;;;;;;;;2068591;28;20209;-59
2022/02/01 02:49:15;;;;;;;14.73;5.27;;;;;;;;;;2071497;28;20200;-61
2022/02/01 02:50:15;;;;;;;14.57;4.73;;;;;;;;;;2073563;28;20234;-61
2022/02/01 02:51:15;;;;;;;13.37;4.17;;;;;;;;;;2072215;28;20255;-60
2022/02/01 02:52:16;;;;;;;15.70;4.27;;;;;;;;;;2073305;28;20180;-60
2022/02/01 02:53:16;;;;;;;16.30;4.43;;;;;;;;;;2072449;28;20216;-59
2022/02/01 02:54:20;;;;;;;17.03;4.90;;;;;;;;;;2072815;28;20826;-60
2022/02/01 02:55:20;;;;;;;19.40;4.93;;;;;;;;;;2072705;28;20181;-59
2022/02/01 02:56:21;;;;;;;14.30;3.63;;;;;;;;;;2072902;28;20626;-58
2022/02/01 02:57:21;;;;;;;10.67;4.53;;;;;;;;;;2071925;28;20188;-60
2022/02/01 02:58:21;;;;;;;12.53;4.13;;;;;;;;;;2073015;28;20278;-58
2022/02/01 02:59:22;;;;;;;14.27;4.60;;;;;;;;;;2071981;28;20275;-59
2022/02/01 03:00:23;;;;;;;14.50;4.77;;;;;;;;;;2072704;28;20259;-60
2022/02/01 03:01:23;;;;;;;16.17;4.10;;;;;;;;;;2070917;28;20197;-61
2022/02/01 03:02:23;;;;;;;21.23;4.37;;;;;;;;;;2073389;28;20189;-60
2022/02/01 03:03:24;;;;;;;13.10;4.40;;;;;;;;;;2072940;28;20324;-59
2022/02/01 03:04:25;;;;;;;10.13;4.53;;;;;;;;;;2073280;28;20271;-60
2022/02/01 03:05:25;;;;;;;12.20;3.33;;;;;;;;;;2072387;28;20181;-59
2022/02/01 03:06:26;;;;;;;14.90;4.53;;;;;;;;;;2072198;28;20192;-61
2022/02/01 03:07:26;;;;;;;11.23;4.10;;;;;;;;;;2070476;28;20216;-60
2022/02/01 03:08:28;;;;;;;11.10;4.53;;;;;;;;;;2069904;28;20192;-60
2022/02/01 03:09:30;;;;;;;11.73;4.50;;;;;;;;;;2072376;28;20181;-57
2022/02/01 03:10:30;;;;;;;14.27;3.97;;;;;;;;;;2071375;28;20548;-56
2022/02/01 03:11:30;;;;;;;15.10;3.97;;;;;;;;;;2072830;28;20164;-58
2022/02/01 03:12:57;;;;;;;15.20;4.50;;;;;;;;;;2070002;28;20260;-63
2022/02/01 03:13:58;;;;;;;11.70;3.73;;;;;;;;;;2072619;28;20171;-57
2022/02/01 03:15:19;;;;;;;16.30;4.37;;;;;;;;;;2068251;28;20258;-60
2022/02/01 03:19:52;;;;;;;15.87;4.27;;;;;;;;;;2072735;28;20176;-62
2022/02/01 03:20:52;;;;;;;13.83;4.23;;;;;;;;;;2072566;28;20189;-58
2022/02/01 03:21:53;;;;;;;10.73;4.10;;;;;;;;;;2076289;28;20736;-60
2022/02/01 03:22:53;;;;;;;12.97;4.60;;;;;;;;;;2066666;28;20173;-58
2022/02/01 03:23:53;;;;;;;12.50;4.23;;;;;;;;;;2072088;28;20629;-57
2022/02/01 03:24:55;;;;;;;12.07;4.80;;;;;;;;;;2067283;28;20268;-59
2022/02/01 03:25:55;;;;;;;13.93;4.00;;;;;;;;;;2072268;28;20266;-59
2022/02/01 03:26:55;;;;;;;9.57;3.87;;;;;;;;;;2071175;28;20288;-58
2022/02/01 03:27:56;;;;;;;17.53;4.47;;;;;;;;;;2071963;28;20185;-60
2022/02/01 03:28:56;;;;;;;13.17;3.90;;;;;;;;;;2069815;28;20216;-57
2022/02/01 03:29:56;;;;;;;22.13;4.83;;;;;;;;;;2081898;28;20191;-60
2022/02/01 03:30:57;;;;;;;12.90;4.93;;;;;;;;;;2088596;28;20199;-56
2022/02/01 03:31:57;;;;;;;12.93;4.50;;;;;;;;;;2071370;28;20187;-59
2022/02/01 03:32:57;;;;;;;15.87;4.43;;;;;;;;;;2072192;28;20173;-55
2022/02/01 03:33:58;;;;;;;12.90;4.10;;;;;;;;;;2071293;28;20589;-61
2022/02/01 03:34:58;;;;;;;12.33;4.40;;;;;;;;;;2070541;28;20171;-60
2022/02/01 03:35:58;;;;;;;17.03;3.90;;;;;;;;;;2068218;28;20643;-61
2022/02/01 03:36:58;;;;;;;17.37;4.67;;;;;;;;;;2071950;28;20172;-58
2022/02/01 03:38:01;;;;;;;13.30;4.37;;;;;;;;;;2066125;28;20182;-59
2022/02/01 03:39:01;;;;;;;12.13;5.30;;;;;;;;;;2070327;28;20185;-58
2022/02/01 03:40:02;;;;;;;17.40;4.60;;;;;;;;;;2065308;28;20584;-54
2022/02/01 03:41:02;;;;;;;16.10;5.77;;;;;;;;;;2071928;28;20645;-60
2022/02/01 03:42:03;;;;;;;10.43;4.23;;;;;;;;;;2070421;28;20227;-59
2022/02/01 03:43:03;;;;;;;16.90;4.80;;;;;;;;;;2067183;28;20539;-55
2022/02/01 03:44:05;;;;;;;9.17;4.23;;;;;;;;;;2069375;28;20188;-61
2022/02/01 03:45:06;;;;;;;10.70;3.70;;;;;;;;;;2066765;28;20173;-56
2022/02/01 03:46:06;;;;;;;14.33;5.17;;;;;;;;;;2071494;28;20191;-59
2022/02/01 03:47:06;;;;;;;15.90;4.33;;;;;;;;;;2072554;28;20216;-56
2022/02/01 03:48:07;;;;;;;20.07;5.37;;;;;;;;;;2071818;28;20208;-60
2022/02/01 03:49:07;;;;;;;8.60;4.13;;;;;;;;;;2064205;28;20178;-61
2022/02/01 03:50:08;;;;;;;13.87;4.93;;;;;;;;;;2063754;28;20236;-59
2022/02/01 03:51:08;;;;;;;14.40;4.13;;;;;;;;;;2071832;28;20216;-57
2022/02/01 03:52:09;;;;;;;15.00;5.20;;;;;;;;;;2072409;28;20184;-60
2022/02/01 03:53:10;;;;;;;13.60;3.93;;;;;;;;;;2071425;28;20243;-59
2022/02/01 03:54:10;;;;;;;13.20;4.30;;;;;;;;;;2070473;28;20192;-58
2022/02/01 03:55:10;;;;;;;17.33;5.47;;;;;;;;;;2068492;28;20816;-58
2022/02/01 03:56:10;;;;;;;13.90;4.50;;;;;;;;;;2071506;28;20191;-59
2022/02/01 03:57:14;;;;;;;15.00;4.50;;;;;;;;;;2072615;28;20160;-60
2022/02/01 03:58:14;;;;;;;11.07;4.23;;;;;;;;;;2070238;28;20687;-61
2022/02/01 03:59:15;;;;;;;14.20;4.70;;;;;;;;;;2069134;28;20185;-61
2022/02/01 04:00:15;;;;;;;12.43;4.63;;;;;;;;;;2072336;28;20169;-57
2022/02/01 04:01:15;;;;;;;12.63;3.67;;;;;;;;;;2073058;28;20264;-60
2022/02/01 04:02:16;;;;;;;18.30;4.97;;;;;;;;;;2085181;28;20267;-60
2022/02/01 04:03:16;;;;;;;12.80;4.50;;;;;;;;;;2088258;28;20214;-58
2022/02/01 04:04:17;;;;;;;13.83;4.47;;;;;;;;;;2072254;28;20173;-58
2022/02/01 04:05:17;;;;;;;10.77;4.47;;;;;;;;;;2068887;28;20646;-61
2022/02/01 04:06:17;;;;;;;22.47;5.27;;;;;;;;;;2068974;28;20268;-58
2022/02/01 04:07:17;;;;;;;15.77;4.60;;;;;;;;;;2072745;28;20607;-56
2022/02/01 04:08:19;;;;;;;19.43;4.63;;;;;;;;;;2071827;28;20537;-60
2022/02/01 04:09:20;;;;;;;14.57;4.70;;;;;;;;;;2067793;28;20213;-59
2022/02/01 04:10:20;;;;;;;12.43;4.77;;;;;;;;;;2069245;28;20177;-61
2022/02/01 04:11:21;;;;;;;15.23;4.13;;;;;;;;;;2073218;28;20177;-60
2022/02/01 04:12:21;;;;;;;21.40;5.57;;;;;;;;;;2072299;28;20219;-56
2022/02/01 04:13:21;;;;;;;20.30;5.50;;;;;;;;;;2068224;28;20224;-58
2022/02/01 04:14:25;;;;;;;16.77;5.00;;;;;;;;;;2085160;28;20176;-59
2022/02/01 04:15:27;;;;;;;10.40;4.60;;;;;;;;;;2085613;28;20202;-61
2022/02/01 04:16:28;;;;;;;13.87;5.17;;;;;;;;;;2070486;28;20172;-61
2022/02/01 04:17:28;;;;;;;12.53;4.63;;;;;;;;;;2072707;28;20165;-55
2022/02/01 04:18:28;;;;;;;13.03;3.97;;;;;;;;;;2071338;28;20680;-59
2022/02/01 04:19:30;;;;;;;15.23;4.77;;;;;;;;;;2072212;28;20289;-59
2022/02/01 04:20:30;;;;;;;17.20;4.30;;;;;;;;;;2067986;28;20200;-59
2022/02/01 04:21:31;;;;;;;16.90;5.17;;;;;;;;;;2067139;28;20169;-60
2022/02/01 04:22:31;;;;;;;13.23;4.17;;;;;;;;;;2071692;28;20186;-59
2022/02/01 04:23:31;;;;;;;18.57;4.83;;;;;;;;;;2070823;28;20656;-60
2022/02/01 04:24:33;;;;;;;16.80;5.30;;;;;;;;;;2070571;28;20188;-59
2022/02/01 04:25:34;;;;;;;27.63;6.20;;;;;;;;;;2067952;28;20174;-61
2022/02/01 04:26:34;;;;;;;13.43;3.97;;;;;;;;;;2072017;28;20168;-61
2022/02/01 04:27:34;;;;;;;14.10;4.90;;;;;;;;;;2071748;28;20693;-59
2022/02/01 04:28:34;;;;;;;17.20;4.83;;;;;;;;;;2072807;28;20200;-60
2022/02/01 04:29:42;;;;;;;12.80;4.63;;;;;;;;;;2068487;28;20193;-60
2022/02/01 04:30:43;;;;;;;12.73;4.77;;;;;;;;;;2072790;28;20207;-57
2022/02/01 04:31:43;;;;;;;11.87;4.20;;;;;;;;;;2068338;28;20211;-59
2022/02/01 04:32:44;;;;;;;21.50;4.70;;;;;;;;;;2072625;28;20521;-60
2022/02/01 04:33:45;;;;;;;13.00;4.00;;;;;;;;;;2068782;28;20177;-56
2022/02/01 04:34:49;;;;;;;8.53;3.77;;;;;;;;;;2063925;28;20194;-58
2022/02/01 04:35:50;;;;;;;19.10;4.40;;;;;;;;;;2069477;28;20216;-61
2022/02/01 04:36:50;;;;;;;15.93;4.60;;;;;;;;;;2071248;28;20595;-57
2022/02/01 04:37:54;;;;;;;12.50;4.60;;;;;;;;;;2087577;28;20558;-62
2022/02/01 04:38:57;;;;;;;17.77;4.50;;;;;;;;;;2086313;28;20731;-57
2022/02/01 04:39:57;;;;;;;21.13;4.57;;;;;;;;;;2065983;28;20504;-60
2022/02/01 04:40:58;;;;;;;14.87;4.70;;;;;;;;;;2070401;28;20187;-62
2022/02/01 04:41:58;;;;;;;14.93;4.37;;;;;;;;;;2071183;28;20511;-59
2022/02/01 04:42:58;;;;;;;13.87;4.30;;;;;;;;;;2065910;28;20173;-61
2022/02/01 04:43:59;;;;;;;21.80;4.77;;;;;;;;;;2073312;28;20264;-61
2022/02/01 04:45:00;;;;;;;14.97;4.07;;;;;;;;;;2072744;28;20184;-62
2022/02/01 04:46:04;;;;;;;11.07;3.87;;;;;;;;;;2072144;28;20161;-59
2022/02/01 04:47:04;;;;;;;19.37;4.30;;;;;;;;;;2071623;28;20572;-57
2022/02/01 04:48:04;;;;;;;11.03;3.63;;;;;;;;;;2072952;28;20276;-56
2022/02/01 04:49:08;;;;;;;14.03;4.37;;;;;;;;;;2072178;28;20303;-57
2022/02/01 04:50:12;;;;;;;13.03;4.10;;;;;;;;;;2072169;28;20269;-59
2022/02/01 04:51:12;;;;;;;13.20;4.20;;;;;;;;;;2071964;28;20887;-59
2022/02/01 04:52:13;;;;;;;16.23;4.43;;;;;;;;;;2072858;28;20173;-60
2022/02/01 04:53:13;;;;;;;14.93;5.03;;;;;;;;;;2072160;28;20637;-60
2022/02/01 04:54:13;;;;;;;13.83;4.23;;;;;;;;;;2072965;28;20239;-60
2022/02/01 04:55:14;;;;;;;7.83;3.30;;;;;;;;;;2071743;28;20187;-59
2022/02/01 04:56:15;;;;;;;14.37;5.40;;;;;;;;;;2070826;28;20184;-58
2022/02/01 04:57:15;;;;;;;9.50;4.40;;;;;;;;;;2069417;28;20208;-58
2022/02/01 04:58:15;;;;;;;12.10;4.67;;;;;;;;;;2069805;28;20568;-63
2022/02/01 04:59:16;;;;;;;12.27;4.03;;;;;;;;;;2072775;28;20235;-60
2022/02/01 05:00:16;;;;;;;14.00;4.27;;;;;;;;;;2073781;28;20223;-60
2022/02/01 05:01:17;;;;;;;14.13;3.90;;;;;;;;;;2073842;28;20652;-59
2022/02/01 05:02:17;;;;;;;9.87;4.53;;;;;;;;;;2071184;28;20183;-61
2022/02/01 05:03:18;;;;;;;14.90;4.13;;;;;;;;;;2074383;28;20192;-55
2022/02/01 05:04:21;;;;;;;11.10;4.60;;;;;;;;;;2070912;28;20271;-60
2022/02/01 05:05:28;;;;;;;14.90;4.03;;;;;;;;;;2073698;28;20713;-61
2022/02/01 05:06:29;;;;;;;10.97;3.33;;;;;;;;;;2073506;28;20669;-61
2022/02/01 05:07:29;;;;;;;15.37;4.20;;;;;;;;;;2073301;28;20193;-61
2022/02/01 05:08:29;;;;;;;12.17;4.47;;;;;;;;;;2073862;28;20260;-60
2022/02/01 05:09:31;;;;;;;14.20;4.50;;;;;;;;;;2071416;28;20172;-60
2022/02/01 05:10:33;;;;;;;10.57;4.07;;;;;;;;;;2071604;28;20191;-61
2022/02/01 05:11:33;;;;;;;9.93;3.70;;;;;;;;;;2068923;28;20446;-60
2022/02/01 05:12:36;;;;;;;11.77;4.63;;;;;;;;;;2072698;28;20270;-59
2022/02/01 05:14:01;;;;;;;7.57;3.60;;;;;;;;;;2070816;28;20176;-60
2022/02/01 05:14:57;;;;;;;12.57;3.80;;;;;;;;;;2067343;28;20231;-62
2022/02/01 05:16:02;;;;;;;8.70;4.00;;;;;;;;;;2068219;28;20510;-60
2022/02/01 05:17:03;;;;;;;12.17;3.17;;;;;;;;;;2072129;28;20190;-60
2022/02/01 05:18:04;;;;;;;9.33;3.10;;;;;;;;;;2070582;28;20282;-61
2022/02/01 05:19:05;;;;;;;13.37;3.53;;;;;;;;;;2072098;28;20216;-57
2022/02/01 05:20:24;;;;;;;12.73;3.57;;;;;;;;;;2073544;28;20176;-61
2022/02/01 05:21:26;;;;;;;7.63;3.90;;;;;;;;;;2070407;28;20161;-64
2022/02/01 05:22:30;;;;;;;8.47;3.63;;;;;;;;;;2073536;28;20213;-61
2022/02/01 05:23:31;;;;;;;10.50;3.77;;;;;;;;;;2073526;28;20216;-60
2022/02/01 05:24:34;;;;;;;10.57;3.70;;;;;;;;;;2073816;28;20228;-62
2022/02/01 05:25:35;;;;;;;13.33;4.17;;;;;;;;;;2073736;28;20173;-59
2022/02/01 05:26:35;;;;;;;13.20;3.60;;;;;;;;;;2073425;28;20179;-61
2022/02/01 05:27:38;;;;;;;17.53;3.83;;;;;;;;;;2073814;28;20184;-61
2022/02/01 05:28:38;;;;;;;10.17;3.37;;;;;;;;;;2074226;28;20188;-58
2022/02/01 05:29:39;;;;;;;11.80;3.73;;;;;;;;;;2074219;28;20179;-60
2022/02/01 05:30:39;;;;;;;6.87;3.67;;;;;;;;;;2073868;28;20214;-62
2022/02/01 05:31:40;;;;;;;9.67;3.60;;;;;;;;;;2073628;28;20239;-62
2022/02/01 05:32:40;;;;;;;7.90;3.23;;;;;;;;;;2074129;28;20205;-60
2022/02/01 05:33:40;;;;;;;9.57;3.27;;;;;;;;;;2074253;28;20263;-60
2022/02/01 05:34:40;;;;;;;9.53;3.53;;;;;;;;;;2074404;28;20181;-60
2022/02/01 05:35:40;;;;;;;9.23;3.43;;;;;;;;;;2074144;28;20173;-58
2022/02/01 05:36:41;;;;;;;9.37;3.83;;;;;;;;;;2074273;28;20582;-59
2022/02/01 05:37:41;;;;;;;8.53;3.50;;;;;;;;;;2073773;28;20180;-59
2022/02/01 05:38:41;;;;;;;12.33;3.77;;;;;;;;;;2074273;28;20204;-60
2022/02/01 05:39:41;;;;;;;11.00;4.23;;;;;;;;;;2074066;28;20544;-60
2022/02/01 05:40:42;;;;;;;7.67;3.00;;;;;;;;;;2089936;28;20190;-60
2022/02/01 05:41:42;;;;;;;8.43;4.43;;;;;;;;;;2089331;28;20175;-60
2022/02/01 05:42:57;;;;;;;9.10;3.40;;;;;;;;;;2074008;28;20633;-59
2022/02/01 05:43:57;;;;;;;8.97;3.33;;;;;;;;;;2073226;28;20614;-61
2022/02/01 05:44:58;;;;;;;8.53;3.50;;;;;;;;;;2074144;28;20180;-59
2022/02/01 05:45:59;;;;;;;8.47;3.23;;;;;;;;;;2073830;28;20180;-60
2022/02/01 05:47:01;;;;;;;6.80;3.53;;;;;;;;;;2073586;28;20187;-60
2022/02/01 05:48:02;;;;;;;13.87;3.30;;;;;;;;;;2064507;28;20574;-56
2022/02/01 05:49:03;;;;;;;11.23;4.37;;;;;;;;;;2073462;28;20238;-60
2022/02/01 05:50:03;;;;;;;12.03;3.90;;;;;;;;;;2074071;28;20653;-58
2022/02/01 05:51:03;;;;;;;12.60;3.73;;;;;;;;;;2074061;28;20284;-59
2022/02/01 05:52:04;;;;;;;9.93;3.70;;;;;;;;;;2072250;28;20216;-58
2022/02/01 05:53:05;;;;;;;12.90;3.87;;;;;;;;;;2069466;28;20197;-57
2022/02/01 05:54:06;;;;;;;8.80;3.60;;;;;;;;;;2073635;28;20191;-58
2022/02/01 05:55:06;;;;;;;9.97;4.00;;;;;;;;;;2073674;28;20532;-57
2022/02/01 05:56:07;;;;;;;10.10;3.73;;;;;;;;;;2072743;28;20239;-60
2022/02/01 05:57:09;;;;;;;7.50;3.57;;;;;;;;;;2073497;28;20177;-58
2022/02/01 05:58:09;;;;;;;9.10;3.47;;;;;;;;;;2071348;28;20594;-59
2022/02/01 05:59:09;;;;;;;12.47;3.57;;;;;;;;;;2070931;28;20242;-59
2022/02/01 06:00:10;;;;;;;7.03;3.07;;;;;;;;;;2071721;28;20582;-59
2022/02/01 06:01:19;;;;;;;7.67;3.80;;;;;;;;;;2072369;28;20638;-58
2022/02/01 06:02:19;;;;;;;6.10;3.23;;;;;;;;;;2073661;28;20185;-57
2022/02/01 06:03:19;;;;;;;9.40;3.63;;;;;;;;;;2073617;28;20605;-60
2022/02/01 06:04:23;;;;;;;12.83;3.53;;;;;;;;;;2074029;28;20548;-55
2022/02/01 06:05:23;;;;;;;8.40;3.50;;;;;;;;;;2073432;28;20173;-59
2022/02/01 06:06:24;;;;;;;8.40;3.70;;;;;;;;;;2074384;28;20181;-57
2022/02/01 06:07:24;;;;;;;11.10;3.80;;;;;;;;;;2072828;28;20181;-56
2022/02/01 06:08:25;;;;;;;7.60;3.50;;;;;;;;;;2073515;28;20280;-57
2022/02/01 06:09:25;;;;;;;8.43;3.13;;;;;;;;;;2074179;28;20627;-59
2022/02/01 06:10:25;;;;;;;14.33;3.57;;;;;;;;;;2074339;28;20185;-61
2022/02/01 06:11:27;;;;;;;8.77;3.67;;;;;;;;;;2074033;28;20241;-59
2022/02/01 06:12:27;;;;;;;8.17;3.30;;;;;;;;;;2074084;28;20168;-59
2022/02/01 06:13:27;;;;;;;12.07;4.43;;;;;;;;;;2073233;28;20192;-61
2022/02/01 06:14:28;;;;;;;11.20;4.47;;;;;;;;;;2072533;28;20214;-61
2022/02/01 06:15:28;;;;;;;8.93;3.37;;;;;;;;;;2072468;28;20272;-62
2022/02/01 06:16:30;;;;;;;9.57;3.63;;;;;;;;;;2071263;28;20191;-61
2022/02/01 06:17:30;;;;;;;6.57;3.30;;;;;;;;;;2072405;28;20220;-60
2022/02/01 06:18:30;;;;;;;6.70;3.13;;;;;;;;;;2073145;28;20197;-60
2022/02/01 06:19:30;;;;;;;9.83;3.77;;;;;;;;;;2070120;28;20181;-59
2022/02/01 06:20:31;;;;;;;11.03;3.90;;;;;;;;;;2072749;28;20197;-56
2022/02/01 06:21:31;;;;;;;11.60;3.77;;;;;;;;;;2070777;28;20197;-61
2022/02/01 06:22:31;;;;;;;18.53;4.80;;;;;;;;;;2072332;28;20211;-60
2022/02/01 06:23:31;;;;;;;9.73;3.53;;;;;;;;;;2073009;28;20184;-58
2022/02/01 06:24:33;;;;;;;7.17;3.53;;;;;;;;;;2073560;28;20173;-60
2022/02/01 06:25:50;;;;;;;5.83;3.73;;;;;;;;;;2073264;28;20177;-59
2022/02/01 06:26:50;;;;;;;8.83;3.90;;;;;;;;;;2070941;28;20703;-58
2022/02/01 06:27:50;;;;;;;8.87;3.30;;;;;;;;;;2071601;28;20331;-62
2022/02/01 06:28:50;;;;;;;8.67;3.40;;;;;;;;;;2073136;28;20266;-63
2022/02/01 06:29:51;;;;;;;9.77;3.40;;;;;;;;;;2069128;28;20219;-59
2022/02/01 06:30:52;;;;;;;9.97;3.90;;;;;;;;;;2072069;28;20205;-61
2022/02/01 06:31:53;;;;;;;8.40;3.60;;;;;;;;;;2071570;28;20209;-64
2022/02/01 06:32:53;;;;;;;11.73;3.70;;;;;;;;;;2072909;28;20531;-60
2022/02/01 06:33:53;;;;;;;7.00;3.27;;;;;;;;;;2073941;28;20187;-63
2022/02/01 06:34:54;;;;;;;9.97;3.63;;;;;;;;;;2077347;28;20185;-60
2022/02/01 06:35:54;;;;;;;7.23;3.53;;;;;;;;;;2076521;28;20172;-62
2022/02/01 06:36:54;;;;;;;10.00;3.60;;;;;;;;;;2075748;28;20355;-61
2022/02/01 06:37:55;;;;;;;10.70;3.73;;;;;;;;;;2079858;28;20190;-63
2022/02/01 06:38:55;;;;;;;9.43;3.43;;;;;;;;;;2073528;28;20197;-63
2022/02/01 06:39:55;;;;;;;7.80;3.40;;;;;;;;;;2071266;28;20177;-60
2022/02/01 06:40:56;;;;;;;10.00;3.70;;;;;;;;;;2070833;28;20263;-62
2022/02/01 06:41:56;;;;;;;13.10;4.20;;;;;;;;;;2069808;28;20181;-64
2022/02/01 06:42:56;;;;;;;8.83;3.20;;;;;;;;;;2072447;28;20199;-61
2022/02/01 06:43:57;;;;;;;12.90;3.67;;;;;;;;;;2073761;28;20177;-61
2022/02/01 06:44:57;;;;;;;13.33;4.57;;;;;;;;;;2073277;28;20184;-61
2022/02/01 06:45:58;;;;;;;14.40;4.07;;;;;;;;;;2073542;28;20173;-61
2022/02/01 06:46:59;;;;;;;10.60;3.87;;;;;;;;;;2074165;28;20681;-62
2022/02/01 06:47:59;;;;;;;8.50;3.87;;;;;;;;;;2075306;28;20200;-61
2022/02/01 06:49:00;;;;;;;8.90;2.80;;;;;;;;;;2085121;22;20211;-58
2022/02/01 06:50:00;;;;;;;9.37;3.70;;;;;;;;;;2088172;28;20183;-56
2022/02/01 06:51:00;;;;;;;11.70;3.40;;;;;;;;;;2087997;28;20699;-60
2022/02/01 06:52:01;;;;;;;7.60;3.33;;;;;;;;;;2103838;28;20295;-57
2022/02/01 06:53:03;;;;;;;10.90;3.43;;;;;;;;;;2102499;28;20174;-59
2022/02/01 06:54:04;;;;;;;7.97;3.20;;;;;;;;;;2086673;28;20269;-58
2022/02/01 06:55:04;;;;;;;8.40;2.87;;;;;;;;;;2089085;28;20186;-61
2022/02/01 06:57:05;;;;;;;11.40;4.03;;;;;;;;;;2086747;28;20156;-54
2022/02/01 06:58:08;;;;;;;9.10;3.73;;;;;;;;;;2088092;28;20207;-56
2022/02/01 06:59:09;;;;;;;10.00;3.90;;;;;;;;;;2085893;28;20199;-56
2022/02/01 07:00:09;;;;;;;13.20;3.17;;;;;;;;;;2084258;28;20207;-59
2022/02/01 07:01:09;;;;;;;12.97;4.13;;;;;;;;;;2085094;28;20190;-55
2022/02/01 07:02:10;;;;;;;11.67;3.70;;;;;;;;;;2085225;28;20500;-56
2022/02/01 07:03:10;;;;;;;12.63;4.47;;;;;;;;;;2084457;28;20180;-51
2022/02/01 07:04:10;;;;;;;10.70;3.50;;;;;;;;;;2085836;28;20195;-56
2022/02/01 07:05:10;;;;;;;7.90;3.53;;;;;;;;;;2085148;28;20181;-57
2022/02/01 07:06:12;;;;;;;9.37;3.67;;;;;;;;;;2085511;28;20195;-62
2022/02/01 07:07:13;;;;;;;10.83;3.17;;;;;;;;;;2083625;28;20698;-56
2022/02/01 07:08:13;;;;;;;8.50;3.27;;;;;;;;;;2084001;28;20169;-60
2022/02/01 07:09:15;;;;;;;12.83;4.20;;;;;;;;;;2084054;28;20207;-60
2022/02/01 07:10:15;;;;;;;9.43;3.93;;;;;;;;;;2085623;28;20211;-60
2022/02/01 07:11:19;;;;;;;7.30;3.97;;;;;;;;;;2085124;28;20203;-61
2022/02/01 07:12:20;;;;;;;10.43;3.83;;;;;;;;;;2086130;28;20171;-61